sensor_id;sensor_type;location;lat;lon;timestamp;temperature;humidity
63289;DHT22;49412;48.162;-1.978;2023-03-29T14:26:15;31.10;45.70
63289;DHT22;49412;48.162;-1.978;2023-03-29T17:54:55;16.60;99.90
63289;DHT22;49412;48.162;-1.978;2023-03-29T17:57:22;16.00;1.00
63289;DHT22;49412;48.162;-1.978;2023-03-29T17:59:49;14.80;1.00
63289;DHT22;49412;48.162;-1.978;2023-03-29T18:02:17;14.40;99.90
63289;DHT22;49412;48.162;-1.978;2023-03-29T18:04:50;14.30;99.90
63289;DHT22;49412;48.162;-1.978;2023-03-29T18:07:17;14.30;99.90
63289;DHT22;49412;48.162;-1.978;2023-03-29T18:09:43;14.20;99.90
63289;DHT22;49412;48.162;-1.978;2023-03-29T18:12:11;14.20;99.90
63289;DHT22;49412;48.162;-1.978;2023-03-29T18:14:43;14.30;99.90
63289;DHT22;49412;48.162;-1.978;2023-03-29T18:17:12;14.30;99.90
63289;DHT22;49412;48.162;-1.978;2023-03-29T18:19:39;14.50;99.90
63289;DHT22;49412;48.162;-1.978;2023-03-29T18:22:12;14.60;99.90
63289;DHT22;49412;48.162;-1.978;2023-03-29T18:24:39;14.70;99.90
63289;DHT22;49412;48.162;-1.978;2023-03-29T18:27:08;14.60;99.90
63289;DHT22;49412;48.162;-1.978;2023-03-29T18:29:37;14.60;99.90
63289;DHT22;49412;48.162;-1.978;2023-03-29T18:32:04;14.60;99.90
63289;DHT22;49412;48.162;-1.978;2023-03-29T18:34:31;14.60;99.90
63289;DHT22;49412;48.162;-1.978;2023-03-29T18:36:59;14.50;99.90
63289;DHT22;49412;48.162;-1.978;2023-03-29T18:39:25;14.60;99.90
63289;DHT22;49412;48.162;-1.978;2023-03-29T18:41:56;14.20;99.90
63289;DHT22;49412;48.162;-1.978;2023-03-29T18:44:22;14.10;99.90
63289;DHT22;49412;48.162;-1.978;2023-03-29T18:46:52;13.90;99.90
63289;DHT22;49412;48.162;-1.978;2023-03-29T18:49:19;13.90;99.90
63289;DHT22;49412;48.162;-1.978;2023-03-29T18:51:46;13.80;99.90
63289;DHT22;49412;48.162;-1.978;2023-03-29T18:54:20;13.80;99.90
63289;DHT22;49412;48.162;-1.978;2023-03-29T18:56:46;13.80;99.90
63289;DHT22;49412;48.162;-1.978;2023-03-29T18:59:13;13.80;99.90
63289;DHT22;49412;48.162;-1.978;2023-03-29T19:01:41;13.80;99.90
63289;DHT22;49412;48.162;-1.978;2023-03-29T19:04:08;13.90;99.90
63289;DHT22;49412;48.162;-1.978;2023-03-29T19:06:39;14.10;99.90
63289;DHT22;49412;48.162;-1.978;2023-03-29T19:09:07;13.90;99.90
63289;DHT22;49412;48.162;-1.978;2023-03-29T19:11:34;13.70;99.90
63289;DHT22;49412;48.162;-1.978;2023-03-29T19:14:02;13.70;99.90
63289;DHT22;49412;48.162;-1.978;2023-03-29T19:16:29;13.60;99.90
63289;DHT22;49412;48.162;-1.978;2023-03-29T19:18:56;13.60;99.90
63289;DHT22;49412;48.162;-1.978;2023-03-29T19:21:23;13.60;99.90
63289;DHT22;49412;48.162;-1.978;2023-03-29T19:23:54;13.60;99.90
63289;DHT22;49412;48.162;-1.978;2023-03-29T19:26:26;13.50;99.90
63289;DHT22;49412;48.162;-1.978;2023-03-29T19:29:01;13.50;99.90
63289;DHT22;49412;48.162;-1.978;2023-03-29T19:31:28;13.50;99.90
63289;DHT22;49412;48.162;-1.978;2023-03-29T19:33:55;13.50;99.90
63289;DHT22;49412;48.162;-1.978;2023-03-29T19:36:22;13.50;99.90
63289;DHT22;49412;48.162;-1.978;2023-03-29T19:38:48;13.60;2.30
63289;DHT22;49412;48.162;-1.978;2023-03-29T19:41:16;13.60;1.00
63289;DHT22;49412;48.162;-1.978;2023-03-29T19:43:43;13.60;87.70
63289;DHT22;49412;48.162;-1.978;2023-03-29T19:46:10;13.70;28.00
63289;DHT22;49412;48.162;-1.978;2023-03-29T19:48:40;13.60;99.90
63289;DHT22;49412;48.162;-1.978;2023-03-29T19:51:07;13.50;1.00
63289;DHT22;49412;48.162;-1.978;2023-03-29T19:53:34;13.50;1.00
63289;DHT22;49412;48.162;-1.978;2023-03-29T19:56:07;13.50;99.90
63289;DHT22;49412;48.162;-1.978;2023-03-29T19:58:35;13.50;1.00
63289;DHT22;49412;48.162;-1.978;2023-03-29T20:01:06;13.50;1.00
63289;DHT22;49412;48.162;-1.978;2023-03-29T20:03:33;13.50;1.00
63289;DHT22;49412;48.162;-1.978;2023-03-29T20:06:00;13.50;1.00
63289;DHT22;49412;48.162;-1.978;2023-03-29T20:08:27;13.50;1.00
63289;DHT22;49412;48.162;-1.978;2023-03-29T20:10:57;13.40;99.90
63289;DHT22;49412;48.162;-1.978;2023-03-29T20:13:31;13.50;1.00
63289;DHT22;49412;48.162;-1.978;2023-03-29T20:16:01;13.50;1.00
63289;DHT22;49412;48.162;-1.978;2023-03-29T20:18:29;13.40;1.00
63289;DHT22;49412;48.162;-1.978;2023-03-29T20:20:57;13.40;1.00
63289;DHT22;49412;48.162;-1.978;2023-03-29T20:23:29;13.40;1.00
63289;DHT22;49412;48.162;-1.978;2023-03-29T20:25:59;13.40;1.00
63289;DHT22;49412;48.162;-1.978;2023-03-29T20:28:26;13.40;1.00
63289;DHT22;49412;48.162;-1.978;2023-03-29T20:30:54;13.40;1.00
63289;DHT22;49412;48.162;-1.978;2023-03-29T20:33:21;13.40;1.00
63289;DHT22;49412;48.162;-1.978;2023-03-29T20:35:51;13.40;1.00
63289;DHT22;49412;48.162;-1.978;2023-03-29T20:38:17;13.40;99.90
63289;DHT22;49412;48.162;-1.978;2023-03-29T20:40:44;13.40;99.90
63289;DHT22;49412;48.162;-1.978;2023-03-29T20:43:11;13.40;99.90
63289;DHT22;49412;48.162;-1.978;2023-03-29T20:45:49;13.50;99.90
63289;DHT22;49412;48.162;-1.978;2023-03-29T20:48:18;13.50;99.90
63289;DHT22;49412;48.162;-1.978;2023-03-29T20:50:49;13.50;99.90
63289;DHT22;49412;48.162;-1.978;2023-03-29T20:53:16;13.50;99.90
63289;DHT22;49412;48.162;-1.978;2023-03-29T20:55:45;13.50;93.10
63289;DHT22;49412;48.162;-1.978;2023-03-29T20:58:12;13.50;1.00
63289;DHT22;49412;48.162;-1.978;2023-03-29T21:00:49;13.60;1.00
63289;DHT22;49412;48.162;-1.978;2023-03-29T21:03:16;13.50;32.10
63289;DHT22;49412;48.162;-1.978;2023-03-29T21:05:43;13.50;19.90
63289;DHT22;49412;48.162;-1.978;2023-03-29T21:08:13;13.50;48.80
63289;DHT22;49412;48.162;-1.978;2023-03-29T21:10:43;13.40;82.70
63289;DHT22;49412;48.162;-1.978;2023-03-29T21:13:14;13.40;21.80
63289;DHT22;49412;48.162;-1.978;2023-03-29T21:15:44;13.30;38.10
63289;DHT22;49412;48.162;-1.978;2023-03-29T21:18:11;13.20;99.90
63289;DHT22;49412;48.162;-1.978;2023-03-29T21:20:38;13.10;99.90
63289;DHT22;49412;48.162;-1.978;2023-03-29T21:23:04;12.90;99.90
63289;DHT22;49412;48.162;-1.978;2023-03-29T21:25:34;12.80;99.90
63289;DHT22;49412;48.162;-1.978;2023-03-29T21:28:04;12.80;1.00
63289;DHT22;49412;48.162;-1.978;2023-03-29T21:30:38;12.80;99.90
63289;DHT22;49412;48.162;-1.978;2023-03-29T21:33:04;12.80;99.90
63289;DHT22;49412;48.162;-1.978;2023-03-29T21:35:31;12.80;99.90
63289;DHT22;49412;48.162;-1.978;2023-03-29T21:38:01;12.80;99.90
63289;DHT22;49412;48.162;-1.978;2023-03-29T21:40:30;12.80;99.90
63289;DHT22;49412;48.162;-1.978;2023-03-29T21:43:02;12.80;99.90
63289;DHT22;49412;48.162;-1.978;2023-03-29T21:45:30;12.80;99.90
63289;DHT22;49412;48.162;-1.978;2023-03-29T21:47:57;12.80;99.90
63289;DHT22;49412;48.162;-1.978;2023-03-29T21:50:23;12.70;99.90
63289;DHT22;49412;48.162;-1.978;2023-03-29T21:52:50;12.70;99.90
63289;DHT22;49412;48.162;-1.978;2023-03-29T21:55:17;12.60;99.90
63289;DHT22;49412;48.162;-1.978;2023-03-29T21:57:47;12.60;99.90
63289;DHT22;49412;48.162;-1.978;2023-03-29T22:00:14;12.50;99.90
63289;DHT22;49412;48.162;-1.978;2023-03-29T22:02:42;12.50;99.90
63289;DHT22;49412;48.162;-1.978;2023-03-29T22:05:10;12.50;99.90
63289;DHT22;49412;48.162;-1.978;2023-03-29T22:07:37;12.50;99.90
63289;DHT22;49412;48.162;-1.978;2023-03-29T22:10:08;12.40;99.90
63289;DHT22;49412;48.162;-1.978;2023-03-29T22:12:37;12.40;99.90
63289;DHT22;49412;48.162;-1.978;2023-03-29T22:15:04;12.40;99.90
63289;DHT22;49412;48.162;-1.978;2023-03-29T22:17:32;12.30;99.90
63289;DHT22;49412;48.162;-1.978;2023-03-29T22:20:07;12.40;99.90
63289;DHT22;49412;48.162;-1.978;2023-03-29T22:22:43;12.40;99.90
63289;DHT22;49412;48.162;-1.978;2023-03-29T22:25:11;12.30;99.90
63289;DHT22;49412;48.162;-1.978;2023-03-29T22:27:38;12.30;99.90
63289;DHT22;49412;48.162;-1.978;2023-03-29T22:30:05;12.30;99.90
63289;DHT22;49412;48.162;-1.978;2023-03-29T22:32:32;12.30;99.90
63289;DHT22;49412;48.162;-1.978;2023-03-29T22:34:57;12.30;99.90
63289;DHT22;49412;48.162;-1.978;2023-03-29T22:37:23;12.20;99.90
63289;DHT22;49412;48.162;-1.978;2023-03-29T22:39:49;12.40;99.90
63289;DHT22;49412;48.162;-1.978;2023-03-29T22:42:14;12.40;99.90
63289;DHT22;49412;48.162;-1.978;2023-03-29T22:44:40;12.50;1.00
63289;DHT22;49412;48.162;-1.978;2023-03-29T22:47:06;12.60;1.00
63289;DHT22;49412;48.162;-1.978;2023-03-29T22:49:31;12.60;1.00
63289;DHT22;49412;48.162;-1.978;2023-03-29T22:51:58;12.70;1.00
63289;DHT22;49412;48.162;-1.978;2023-03-29T22:54:28;12.70;1.00
63289;DHT22;49412;48.162;-1.978;2023-03-29T22:56:54;12.80;1.00
63289;DHT22;49412;48.162;-1.978;2023-03-29T22:59:20;12.80;1.00
63289;DHT22;49412;48.162;-1.978;2023-03-29T23:01:46;12.80;1.00
63289;DHT22;49412;48.162;-1.978;2023-03-29T23:04:12;12.80;1.00
63289;DHT22;49412;48.162;-1.978;2023-03-29T23:06:38;12.80;1.00
63289;DHT22;49412;48.162;-1.978;2023-03-29T23:09:03;12.80;99.90
63289;DHT22;49412;48.162;-1.978;2023-03-29T23:11:29;12.90;1.00
63289;DHT22;49412;48.162;-1.978;2023-03-29T23:13:55;13.00;1.00
63289;DHT22;49412;48.162;-1.978;2023-03-29T23:16:21;13.00;1.00
63289;DHT22;49412;48.162;-1.978;2023-03-29T23:18:46;12.90;1.00
63289;DHT22;49412;48.162;-1.978;2023-03-29T23:21:12;12.90;1.00
63289;DHT22;49412;48.162;-1.978;2023-03-29T23:23:38;12.90;1.00
63289;DHT22;49412;48.162;-1.978;2023-03-29T23:26:04;13.00;1.00
63289;DHT22;49412;48.162;-1.978;2023-03-29T23:28:29;13.00;1.00
63289;DHT22;49412;48.162;-1.978;2023-03-29T23:30:56;13.00;1.00
63289;DHT22;49412;48.162;-1.978;2023-03-29T23:33:24;13.00;1.00
63289;DHT22;49412;48.162;-1.978;2023-03-29T23:35:50;13.00;1.00
63289;DHT22;49412;48.162;-1.978;2023-03-29T23:38:16;13.10;1.00
63289;DHT22;49412;48.162;-1.978;2023-03-29T23:40:41;13.10;1.00
63289;DHT22;49412;48.162;-1.978;2023-03-29T23:43:07;13.20;1.00
63289;DHT22;49412;48.162;-1.978;2023-03-29T23:45:34;13.30;1.00
63289;DHT22;49412;48.162;-1.978;2023-03-29T23:48:00;13.30;99.90
63289;DHT22;49412;48.162;-1.978;2023-03-29T23:50:26;13.20;1.00
63289;DHT22;49412;48.162;-1.978;2023-03-29T23:52:52;13.20;99.90
63289;DHT22;49412;48.162;-1.978;2023-03-29T23:55:18;13.20;1.00
63289;DHT22;49412;48.162;-1.978;2023-03-29T23:57:44;13.10;1.00
